createdAt,value
2023-01-26T00:00:30.921Z,39.03
2023-01-26T00:02:33.964Z,39.92
2023-01-26T00:04:38.357Z,40.22
2023-01-26T00:06:41.381Z,39.88
2023-01-26T00:08:46.255Z,38.08
2023-01-26T00:10:51.229Z,36.80
2023-01-26T00:12:54.239Z,37.05
2023-01-26T00:14:57.235Z,36.58
2023-01-26T00:17:00.266Z,38.67
2023-01-26T00:19:03.714Z,38.33
2023-01-26T00:21:09.772Z,39.30
2023-01-26T00:23:12.765Z,39.92
2023-01-26T00:25:15.915Z,38.22
2023-01-26T00:27:19.052Z,37.90
2023-01-26T00:29:22.207Z,37.25
2023-01-26T00:31:27.424Z,38.53
2023-01-26T00:33:30.577Z,38.15
2023-01-26T00:35:33.552Z,38.83
2023-01-26T00:37:39.451Z,36.75
2023-01-26T00:39:42.505Z,39.45
2023-01-26T00:42:03.199Z,40.30
2023-01-26T00:44:06.304Z,37.60
2023-01-26T00:46:09.755Z,35.45
2023-01-26T00:48:12.928Z,39.20
2023-01-26T00:50:17.395Z,37.03
2023-01-26T00:52:20.724Z,38.47
2023-01-26T00:54:25.300Z,37.50
2023-01-26T00:56:28.846Z,37.90
2023-01-26T00:58:31.980Z,37.10
2023-01-26T01:00:36.566Z,37.95
2023-01-26T01:02:40.837Z,38.45
2023-01-26T01:04:44.098Z,37.67
2023-01-26T01:06:47.381Z,37.88
2023-01-26T01:08:50.682Z,37.92
2023-01-26T01:11:04.133Z,38.08
2023-01-26T01:13:07.355Z,36.17
2023-01-26T01:15:10.813Z,36.67
2023-01-26T01:17:15.604Z,37.35
2023-01-26T01:19:19.982Z,37.50
2023-01-26T01:21:24.693Z,37.70
2023-01-26T01:23:29.979Z,36.13
2023-01-26T01:25:34.801Z,37.63
2023-01-26T01:27:39.706Z,38.10
2023-01-26T01:29:43.155Z,36.75
2023-01-26T01:31:46.475Z,36.30
2023-01-26T01:33:49.864Z,36.05
2023-01-26T01:35:59.714Z,36.35
2023-01-26T01:38:03.677Z,35.88
2023-01-26T01:40:08.328Z,36.53
2023-01-26T01:42:11.845Z,36.53
2023-01-26T01:44:20.385Z,36.92
2023-01-26T01:46:32.189Z,36.50
2023-01-26T01:48:43.967Z,37.47
2023-01-26T01:50:47.691Z,36.55
2023-01-26T01:52:51.102Z,37.35
2023-01-26T01:54:58.038Z,36.53
2023-01-26T01:57:06.181Z,36.95
2023-01-26T01:59:11.608Z,36.70
2023-01-26T02:01:16.712Z,37.10
2023-01-26T02:03:21.386Z,36.20
2023-01-26T02:05:34.104Z,36.70
2023-01-26T02:07:39.918Z,35.42
2023-01-26T02:10:02.820Z,33.88
2023-01-26T02:14:12.967Z,32.88
2023-01-26T02:16:18.377Z,35.33
2023-01-26T02:18:21.848Z,34.35
2023-01-26T02:20:32.246Z,33.55
2023-01-26T02:22:46.824Z,33.45
2023-01-26T02:24:53.873Z,34.47
2023-01-26T02:27:00.042Z,32.53
2023-01-26T02:29:07.997Z,33.15
2023-01-26T02:31:14.318Z,31.85
2023-01-26T02:33:19.246Z,33.47
2023-01-26T02:35:22.954Z,31.33
2023-01-26T02:37:26.212Z,33.42
2023-01-26T02:39:42.409Z,31.63
2023-01-26T02:42:04.458Z,31.67
2023-01-26T02:44:12.453Z,31.83
2023-01-26T02:46:15.712Z,31.45
2023-01-26T02:48:40.088Z,30.60
2023-01-26T02:50:42.416Z,31.67
2023-01-26T02:52:45.658Z,33.50
2023-01-26T02:55:12.674Z,32.17
2023-01-26T02:57:15.991Z,30.83
2023-01-26T02:59:22.060Z,32.17
2023-01-26T03:01:25.269Z,31.67
2023-01-26T03:03:41.747Z,31.52
2023-01-26T03:05:45.674Z,30.52
2023-01-26T03:07:49.133Z,32.03
2023-01-26T03:09:52.385Z,29.98
2023-01-26T03:11:55.686Z,31.05
2023-01-26T03:13:58.919Z,30.90
2023-01-26T03:16:07.157Z,31.35
2023-01-26T03:18:28.789Z,30.45
2023-01-26T03:20:49.556Z,29.77
2023-01-26T03:23:09.274Z,30.77
2023-01-26T03:25:29.907Z,28.83
2023-01-26T03:27:40.176Z,30.35
2023-01-26T03:29:43.475Z,30.65
2023-01-26T03:31:48.559Z,30.58
2023-01-26T03:33:51.863Z,30.08
2023-01-26T03:35:56.144Z,30.75
2023-01-26T03:38:00.410Z,30.60
2023-01-26T03:40:34.339Z,29.90
2023-01-26T03:42:55.461Z,29.48
2023-01-26T03:45:16.066Z,30.33
2023-01-26T03:47:38.665Z,22.13
2023-01-26T03:49:59.293Z,30.48
2023-01-26T03:52:19.963Z,30.98
2023-01-26T03:54:42.019Z,29.77
2023-01-26T03:56:45.485Z,28.30
2023-01-26T03:58:53.187Z,29.20
2023-01-26T04:00:58.964Z,29.02
2023-01-26T04:03:20.805Z,29.25
2023-01-26T04:05:41.441Z,29.45
2023-01-26T04:08:02.287Z,28.65
2023-01-26T04:10:06.138Z,27.95
2023-01-26T04:12:10.678Z,25.52
2023-01-26T04:14:49.994Z,27.27
2023-01-26T04:17:15.212Z,27.70
2023-01-26T04:19:37.608Z,27.20
2023-01-26T04:21:40.859Z,26.77
2023-01-26T04:23:58.490Z,25.67
2023-01-26T04:26:01.716Z,26.23
2023-01-26T04:28:06.004Z,25.65
2023-01-26T04:30:11.988Z,24.42
2023-01-26T04:32:15.794Z,25.73
2023-01-26T04:34:20.573Z,25.55
2023-01-26T04:36:23.847Z,25.15
2023-01-26T04:38:28.197Z,24.38
2023-01-26T04:40:31.527Z,25.45
2023-01-26T04:42:34.784Z,25.92
2023-01-26T04:44:39.781Z,24.83
2023-01-26T04:46:43.078Z,25.10
2023-01-26T04:48:48.850Z,25.30
2023-01-26T04:50:56.217Z,25.83
2023-01-26T04:53:00.784Z,24.45
2023-01-26T04:55:04.947Z,24.08
2023-01-26T04:57:11.101Z,23.85
2023-01-26T04:59:17.386Z,24.02
2023-01-26T05:01:21.520Z,24.95
2023-01-26T05:03:26.060Z,24.40
2023-01-26T05:05:29.332Z,23.52
2023-01-26T05:07:34.155Z,23.35
2023-01-26T05:09:38.801Z,24.25
2023-01-26T05:12:18.670Z,23.45
2023-01-26T05:14:42.001Z,23.20
2023-01-26T05:17:05.624Z,22.23
2023-01-26T05:19:43.990Z,22.60
2023-01-26T05:22:13.314Z,22.45
2023-01-26T05:24:25.850Z,23.13
2023-01-26T05:26:38.002Z,23.27
2023-01-26T05:28:45.547Z,22.55
2023-01-26T05:30:48.945Z,22.90
2023-01-26T05:32:52.335Z,22.88
2023-01-26T05:34:55.610Z,23.00
2023-01-26T05:36:58.911Z,23.20
2023-01-26T05:39:02.231Z,22.75
2023-01-26T05:41:11.060Z,22.90
2023-01-26T05:43:28.502Z,22.38
2023-01-26T05:45:45.442Z,23.02
2023-01-26T05:47:50.605Z,22.80
2023-01-26T05:49:54.613Z,22.67
2023-01-26T05:52:02.293Z,22.80
2023-01-26T05:54:06.654Z,22.60
2023-01-26T05:56:11.868Z,22.60
2023-01-26T05:58:19.985Z,22.08
2023-01-26T06:00:24.891Z,23.23
2023-01-26T06:02:35.998Z,22.20
2023-01-26T06:04:39.918Z,22.77
2023-01-26T06:06:43.826Z,23.65
2023-01-26T06:09:08.481Z,22.70
2023-01-26T06:11:29.943Z,23.60
2023-01-26T06:13:45.393Z,22.92
2023-01-26T06:16:01.963Z,22.17
2023-01-26T06:18:06.786Z,22.95
2023-01-26T06:20:12.663Z,22.65
2023-01-26T06:22:16.356Z,21.35
2023-01-26T06:24:23.920Z,22.85
2023-01-26T06:26:29.617Z,22.33
2023-01-26T06:28:34.218Z,22.25
2023-01-26T06:30:38.057Z,23.88
2023-01-26T06:32:48.567Z,22.52
2023-01-26T06:34:54.710Z,21.38
2023-01-26T06:36:58.784Z,23.30
2023-01-26T06:39:07.623Z,21.92
2023-01-26T06:41:11.954Z,22.05
2023-01-26T06:43:16.747Z,21.95
2023-01-26T06:45:20.833Z,21.55
2023-01-26T06:47:25.270Z,21.05
2023-01-26T06:49:28.583Z,21.42
2023-01-26T06:51:59.065Z,21.30
2023-01-26T06:54:16.405Z,20.08
2023-01-26T06:56:37.351Z,19.95
2023-01-26T06:58:58.756Z,21.52
2023-01-26T07:01:24.354Z,21.13
2023-01-26T07:03:27.790Z,20.60
2023-01-26T07:05:31.114Z,20.88
2023-01-26T07:07:34.288Z,21.27
2023-01-26T07:09:37.576Z,20.63
2023-01-26T07:11:40.914Z,20.35
2023-01-26T07:13:44.227Z,20.33
2023-01-26T07:15:48.930Z,20.45
2023-01-26T07:17:52.041Z,21.10
2023-01-26T07:19:55.205Z,20.65
2023-01-26T07:21:58.726Z,20.20
2023-01-26T07:24:01.990Z,20.25
2023-01-26T07:26:05.636Z,20.58
2023-01-26T07:28:10.309Z,20.70
2023-01-26T07:30:14.828Z,20.08
2023-01-26T07:32:19.496Z,20.10
2023-01-26T07:34:22.759Z,20.27
2023-01-26T07:36:26.347Z,20.77
2023-01-26T07:38:30.455Z,20.42
2023-01-26T07:40:34.452Z,19.52
2023-01-26T07:42:37.756Z,21.35
2023-01-26T07:44:52.283Z,20.10
2023-01-26T07:46:55.890Z,21.08
2023-01-26T07:49:00.656Z,21.02
2023-01-26T07:51:05.563Z,20.20
2023-01-26T07:53:09.880Z,19.48
2023-01-26T07:55:13.038Z,19.30
2023-01-26T07:57:16.364Z,19.75
2023-01-26T07:59:19.909Z,18.83
2023-01-26T08:01:28.139Z,19.67
2023-01-26T08:03:32.040Z,18.63
2023-01-26T08:05:38.830Z,19.60
2023-01-26T08:07:45.863Z,18.50
2023-01-26T08:09:50.714Z,19.15
2023-01-26T08:11:54.455Z,18.30
2023-01-26T08:13:57.872Z,18.60
2023-01-26T08:16:05.734Z,18.63
2023-01-26T08:18:08.995Z,18.23
2023-01-26T08:20:14.323Z,18.08
2023-01-26T08:22:18.998Z,17.33
2023-01-26T08:24:22.234Z,18.02
2023-01-26T08:26:25.715Z,17.58
2023-01-26T08:28:29.089Z,17.02
2023-01-26T08:30:32.289Z,15.57
2023-01-26T08:32:35.756Z,16.75
2023-01-26T08:34:41.323Z,16.08
2023-01-26T08:36:45.158Z,16.40
2023-01-26T08:38:49.849Z,16.73
2023-01-26T08:40:54.546Z,15.93
2023-01-26T08:43:00.499Z,15.63
2023-01-26T08:45:03.648Z,14.20
2023-01-26T08:47:06.938Z,13.95
2023-01-26T08:49:10.648Z,13.65
2023-01-26T08:51:13.776Z,14.00
2023-01-26T08:53:17.075Z,13.85
2023-01-26T08:55:22.650Z,13.85
2023-01-26T08:57:26.292Z,14.25
2023-01-26T08:59:29.638Z,14.38
2023-01-26T09:01:33.006Z,13.75
2023-01-26T09:03:36.279Z,14.85
2023-01-26T09:05:41.793Z,13.48
2023-01-26T09:07:45.367Z,13.38
2023-01-26T09:09:48.544Z,13.40
2023-01-26T09:11:56.533Z,13.10
2023-01-26T09:14:00.116Z,13.68
2023-01-26T09:16:07.573Z,13.30
2023-01-26T09:18:18.371Z,13.48
2023-01-26T09:20:24.506Z,12.02
2023-01-26T09:22:28.073Z,11.98
2023-01-26T09:24:31.378Z,11.95
2023-01-26T09:26:34.592Z,11.93
2023-01-26T09:28:40.706Z,11.13
2023-01-26T09:30:44.026Z,10.90
2023-01-26T09:32:47.233Z,12.23
2023-01-26T09:34:50.375Z,11.10
2023-01-26T09:36:53.645Z,10.85
2023-01-26T09:38:57.767Z,11.55
2023-01-26T09:41:08.521Z,11.10
2023-01-26T09:43:22.727Z,8.57
2023-01-26T09:45:33.189Z,12.05
2023-01-26T09:47:51.373Z,11.88
2023-01-26T09:50:00.990Z,12.02
2023-01-26T09:52:10.707Z,10.85
2023-01-26T09:54:24.718Z,12.60
2023-01-26T09:56:32.567Z,11.18
2023-01-26T09:58:40.769Z,11.63
2023-01-26T10:00:48.978Z,12.57
2023-01-26T10:03:04.856Z,12.82
2023-01-26T10:05:16.102Z,12.25
2023-01-26T10:07:19.652Z,12.57
2023-01-26T10:09:27.814Z,13.68
2023-01-26T10:11:37.352Z,13.20
2023-01-26T10:13:42.341Z,13.95
2023-01-26T10:15:50.997Z,14.35
2023-01-26T10:17:56.016Z,14.45
2023-01-26T10:20:04.989Z,14.50
2023-01-26T10:22:16.486Z,15.10
2023-01-26T10:24:24.027Z,15.27
2023-01-26T10:26:32.245Z,16.13
2023-01-26T10:28:37.256Z,14.32
2023-01-26T10:30:40.914Z,15.70
2023-01-26T10:32:48.174Z,14.85
2023-01-26T10:34:53.288Z,15.60
2023-01-26T10:37:03.140Z,16.15
2023-01-26T10:39:07.518Z,15.70
2023-01-26T10:41:27.430Z,16.83
2023-01-26T10:43:32.917Z,15.25
2023-01-26T10:45:46.703Z,14.60
2023-01-26T10:48:04.009Z,16.35
2023-01-26T10:50:23.241Z,15.35
2023-01-26T10:52:26.505Z,16.20
2023-01-26T10:54:29.943Z,16.83
2023-01-26T10:56:36.337Z,14.95
2023-01-26T10:58:48.085Z,15.55
2023-01-26T11:00:57.055Z,15.27
2023-01-26T11:03:07.864Z,14.63
2023-01-26T11:05:22.293Z,11.43
2023-01-26T11:07:27.940Z,15.50
2023-01-26T11:09:32.124Z,16.00
2023-01-26T11:11:35.347Z,15.80
2023-01-26T11:13:39.102Z,15.40
2023-01-26T11:15:44.141Z,14.80
2023-01-26T11:18:01.008Z,15.55
2023-01-26T11:20:26.879Z,16.35
2023-01-26T11:22:35.047Z,16.40
2023-01-26T11:24:46.641Z,15.73
2023-01-26T11:29:18.613Z,14.82
2023-01-26T11:31:34.490Z,16.13
2023-01-26T11:33:47.156Z,15.55
2023-01-26T11:36:01.728Z,16.17
2023-01-26T11:38:19.964Z,15.38
2023-01-26T11:40:33.369Z,15.95
2023-01-26T11:42:45.878Z,16.63
2023-01-26T11:45:07.592Z,15.48
2023-01-26T11:49:45.423Z,15.98
2023-01-26T11:52:00.518Z,15.75
2023-01-26T11:54:25.087Z,15.30
2023-01-26T11:56:39.276Z,15.65
2023-01-26T11:58:45.816Z,15.32
2023-01-26T12:00:53.329Z,17.20
2023-01-26T12:03:03.066Z,15.98
2023-01-26T12:05:15.718Z,15.52
2023-01-26T12:07:24.155Z,15.50
2023-01-26T12:09:37.148Z,16.70
2023-01-26T12:11:43.913Z,16.20
2023-01-26T12:13:49.932Z,17.30
2023-01-26T12:15:58.648Z,17.25
2023-01-26T12:18:07.435Z,17.60
2023-01-26T12:20:29.850Z,18.42
2023-01-26T12:22:38.232Z,17.65
2023-01-26T12:25:16.264Z,17.42
2023-01-26T12:27:17.876Z,17.65
2023-01-26T12:29:27.266Z,16.75
2023-01-26T12:31:36.428Z,16.33
2023-01-26T12:33:40.287Z,17.70
2023-01-26T12:35:54.501Z,16.02
2023-01-26T12:38:17.266Z,17.77
2023-01-26T12:40:32.646Z,16.55
2023-01-26T12:42:45.701Z,20.30
2023-01-26T12:44:53.938Z,17.10
2023-01-26T12:47:01.029Z,17.45
2023-01-26T12:49:08.632Z,16.58
2023-01-26T12:51:19.019Z,17.27
2023-01-26T12:53:30.283Z,21.55
2023-01-26T12:55:40.618Z,22.77
2023-01-26T12:57:49.869Z,19.00
2023-01-26T12:59:53.604Z,17.73
2023-01-26T13:01:57.196Z,15.95
2023-01-26T13:04:05.584Z,17.02
2023-01-26T13:06:23.218Z,14.10
2023-01-26T13:08:53.895Z,14.15
2023-01-26T13:10:57.825Z,13.55
2023-01-26T13:13:02.724Z,12.20
2023-01-26T13:15:08.364Z,11.48
2023-01-26T13:17:55.979Z,11.68
2023-01-26T13:20:00.234Z,12.52
2023-01-26T13:22:03.538Z,12.10
2023-01-26T13:24:43.303Z,10.68
2023-01-26T13:26:47.807Z,11.98
2023-01-26T13:28:51.177Z,10.68
2023-01-26T13:31:05.201Z,11.07
2023-01-26T13:33:23.135Z,10.68
2023-01-26T13:35:28.128Z,10.45
2023-01-26T13:37:36.028Z,11.27
2023-01-26T13:39:45.376Z,10.88
2023-01-26T13:41:49.263Z,10.93
2023-01-26T13:43:55.897Z,9.68
2023-01-26T13:46:10.932Z,10.10
2023-01-26T13:48:17.023Z,10.25
2023-01-26T13:50:24.366Z,11.30
2023-01-26T13:52:29.285Z,11.10
2023-01-26T13:54:32.450Z,10.88
2023-01-26T13:56:39.025Z,11.48
2023-01-26T13:58:42.249Z,12.02
2023-01-26T14:00:59.633Z,11.60
2023-01-26T14:03:02.863Z,11.63
2023-01-26T14:05:06.606Z,10.75
2023-01-26T14:07:17.807Z,10.90
2023-01-26T14:09:21.449Z,11.10
2023-01-26T14:11:27.757Z,10.88
2023-01-26T14:13:34.927Z,11.48
2023-01-26T14:15:38.136Z,11.07
2023-01-26T14:17:50.315Z,11.13
2023-01-26T14:19:53.513Z,9.98
2023-01-26T14:21:58.237Z,10.35
2023-01-26T14:24:02.862Z,10.65
2023-01-26T14:26:12.057Z,10.23
2023-01-26T14:28:17.127Z,10.40
2023-01-26T14:30:28.021Z,10.70
2023-01-26T14:32:32.338Z,10.88
2023-01-26T14:34:35.530Z,9.85
2023-01-26T14:36:39.498Z,11.30
2023-01-26T14:38:44.657Z,10.15
2023-01-26T14:40:49.368Z,10.73
2023-01-26T14:42:55.924Z,10.18
2023-01-26T14:44:59.119Z,10.57
2023-01-26T14:47:08.279Z,10.88
2023-01-26T14:49:17.749Z,11.02
2023-01-26T14:51:23.398Z,12.85
2023-01-26T14:53:27.093Z,11.18
2023-01-26T14:55:32.714Z,11.02
2023-01-26T14:57:35.970Z,11.15
2023-01-26T14:59:41.887Z,11.93
2023-01-26T15:01:45.676Z,11.38
2023-01-26T15:03:52.367Z,12.02
2023-01-26T15:06:07.373Z,12.07
2023-01-26T15:08:21.794Z,11.90
2023-01-26T15:10:43.257Z,11.65
2023-01-26T15:14:52.120Z,11.30
2023-01-26T15:16:56.175Z,11.00
2023-01-26T15:19:02.190Z,11.10
2023-01-26T15:21:14.487Z,10.13
2023-01-26T15:23:29.729Z,10.07
2023-01-26T15:25:34.668Z,10.48
2023-01-26T15:27:38.330Z,11.18
2023-01-26T15:29:41.598Z,11.50
2023-01-26T15:31:44.960Z,11.95
2023-01-26T15:33:50.902Z,11.57
2023-01-26T15:35:59.951Z,10.93
2023-01-26T15:38:04.856Z,10.80
2023-01-26T15:40:11.843Z,10.95
2023-01-26T15:42:22.161Z,10.63
2023-01-26T15:44:25.289Z,11.90
2023-01-26T15:46:28.834Z,11.75
2023-01-26T15:48:35.069Z,10.98
2023-01-26T15:50:38.373Z,11.23
2023-01-26T15:52:42.953Z,11.10
2023-01-26T15:54:46.539Z,11.52
2023-01-26T15:56:49.733Z,12.82
2023-01-26T15:58:52.875Z,12.18
2023-01-26T16:00:56.091Z,12.45
2023-01-26T16:02:59.595Z,11.07
2023-01-26T16:05:02.770Z,12.35
2023-01-26T16:07:10.851Z,12.25
2023-01-26T16:09:15.432Z,12.55
2023-01-26T16:11:19.016Z,12.20
2023-01-26T16:13:22.155Z,12.13
2023-01-26T16:15:39.251Z,12.27
2023-01-26T16:17:42.564Z,13.48
2023-01-26T16:19:46.168Z,13.07
2023-01-26T16:21:49.397Z,12.48
2023-01-26T16:23:53.528Z,13.27
2023-01-26T16:25:58.172Z,13.25
2023-01-26T16:28:01.586Z,13.70
2023-01-26T16:30:05.260Z,12.95
2023-01-26T16:32:27.367Z,13.98
2023-01-26T16:34:30.916Z,13.63
2023-01-26T16:36:34.157Z,14.15
2023-01-26T16:38:37.430Z,13.82
2023-01-26T16:40:41.724Z,14.20
2023-01-26T16:42:50.284Z,12.88
2023-01-26T16:44:53.616Z,13.50
2023-01-26T16:46:56.762Z,13.00
2023-01-26T16:49:00.062Z,14.68
2023-01-26T16:51:15.499Z,14.65
2023-01-26T16:53:23.622Z,12.57
2023-01-26T16:55:27.105Z,11.18
2023-01-26T16:57:30.228Z,11.90
2023-01-26T16:59:34.727Z,12.75
2023-01-26T17:01:39.837Z,12.40
2023-01-26T17:03:43.098Z,11.50
2023-01-26T17:05:46.490Z,10.88
2023-01-26T17:07:50.991Z,11.02
2023-01-26T17:09:54.150Z,10.95
2023-01-26T17:11:57.302Z,10.55
2023-01-26T17:14:00.652Z,11.27
2023-01-26T17:16:05.712Z,10.55
2023-01-26T17:18:12.094Z,10.05
2023-01-26T17:20:19.182Z,13.00
2023-01-26T17:22:23.473Z,12.07
2023-01-26T17:24:26.725Z,11.68
2023-01-26T17:26:29.974Z,10.35
2023-01-26T17:28:33.201Z,10.95
2023-01-26T17:30:36.805Z,12.50
2023-01-26T17:32:43.215Z,11.93
2023-01-26T17:34:46.666Z,12.35
2023-01-26T17:36:49.841Z,10.65
2023-01-26T17:38:53.170Z,11.00
2023-01-26T17:40:56.823Z,9.80
2023-01-26T17:43:00.637Z,9.38
2023-01-26T17:45:05.045Z,9.18
2023-01-26T17:47:09.359Z,9.30
2023-01-26T17:49:13.992Z,9.50
2023-01-26T17:51:19.397Z,9.35
2023-01-26T17:53:24.409Z,8.55
2023-01-26T17:55:27.608Z,9.25
2023-01-26T17:57:30.796Z,9.57
2023-01-26T17:59:34.045Z,9.18
2023-01-26T18:01:37.299Z,9.32
2023-01-26T18:03:43.237Z,9.95
2023-01-26T18:05:54.717Z,8.60
2023-01-26T18:07:57.904Z,9.15
2023-01-26T18:10:01.141Z,9.25
2023-01-26T18:12:04.535Z,9.73
2023-01-26T18:14:07.784Z,9.50
2023-01-26T18:16:13.324Z,10.45
2023-01-26T18:18:17.134Z,9.68
2023-01-26T18:20:20.327Z,9.63
2023-01-26T18:22:25.153Z,10.55
2023-01-26T18:24:28.394Z,10.55
2023-01-26T18:26:34.439Z,9.70
2023-01-26T18:28:37.683Z,10.18
2023-01-26T18:30:41.352Z,9.68
2023-01-26T18:32:44.591Z,9.88
2023-01-26T18:34:47.919Z,10.23
2023-01-26T18:36:51.234Z,9.63
2023-01-26T18:38:57.931Z,10.23
2023-01-26T18:41:01.063Z,9.35
2023-01-26T18:43:04.828Z,9.93
2023-01-26T18:45:09.334Z,10.43
2023-01-26T18:47:12.970Z,10.43
2023-01-26T18:49:16.112Z,10.52
2023-01-26T18:51:19.265Z,10.25
2023-01-26T18:53:22.507Z,10.50
2023-01-26T18:55:27.268Z,9.98
2023-01-26T18:57:30.458Z,10.55
2023-01-26T18:59:33.700Z,10.60
2023-01-26T19:01:36.912Z,11.07
2023-01-26T19:03:42.613Z,10.75
2023-01-26T19:05:46.766Z,11.40
2023-01-26T19:07:49.885Z,11.02
2023-01-26T19:09:53.055Z,11.95
2023-01-26T19:11:58.342Z,12.27
2023-01-26T19:14:02.440Z,12.23
2023-01-26T19:16:08.785Z,11.85
2023-01-26T19:18:12.106Z,12.85
2023-01-26T19:20:15.336Z,11.98
2023-01-26T19:22:18.577Z,11.73
2023-01-26T19:24:21.864Z,11.70
2023-01-26T19:26:27.931Z,11.75
2023-01-26T19:28:32.494Z,11.75
2023-01-26T19:30:36.041Z,12.23
2023-01-26T19:32:59.327Z,11.50
2023-01-26T19:35:02.856Z,12.27
2023-01-26T19:37:06.094Z,13.15
2023-01-26T19:39:10.987Z,12.40
2023-01-26T19:41:14.360Z,13.20
2023-01-26T19:43:19.025Z,12.95
2023-01-26T19:45:23.581Z,13.30
2023-01-26T19:47:26.792Z,12.48
2023-01-26T19:49:29.988Z,11.10
2023-01-26T19:51:33.201Z,10.50
2023-01-26T19:53:37.723Z,10.88
2023-01-26T19:55:40.923Z,10.43
2023-01-26T19:57:44.174Z,8.90
2023-01-26T19:59:47.403Z,9.52
2023-01-26T20:01:51.959Z,10.18
2023-01-26T20:03:58.951Z,9.57
2023-01-26T20:06:02.958Z,9.52
2023-01-26T20:08:06.369Z,9.73
2023-01-26T20:10:10.933Z,9.60
2023-01-26T20:12:14.081Z,9.85
2023-01-26T20:14:17.310Z,9.30
2023-01-26T20:16:20.521Z,9.68
2023-01-26T20:18:25.384Z,9.38
2023-01-26T20:20:28.618Z,9.60
2023-01-26T20:22:34.143Z,10.75
2023-01-26T20:24:37.347Z,10.73
2023-01-26T20:26:42.640Z,11.02
2023-01-26T20:28:46.691Z,10.25
2023-01-26T20:30:49.933Z,10.80
2023-01-26T20:32:55.166Z,10.80
2023-01-26T20:35:00.077Z,11.82
2023-01-26T20:37:04.158Z,11.85
2023-01-26T20:39:08.805Z,12.18
2023-01-26T20:41:14.520Z,11.55
2023-01-26T20:43:17.865Z,12.13
2023-01-26T20:45:21.221Z,11.75
2023-01-26T20:47:24.418Z,12.30
2023-01-26T20:49:27.736Z,12.82
2023-01-26T20:51:35.940Z,13.23
2023-01-26T20:53:39.392Z,13.35
2023-01-26T20:55:42.877Z,12.60
2023-01-26T20:57:47.180Z,13.13
2023-01-26T20:59:50.415Z,13.02
2023-01-26T21:01:53.699Z,12.88
2023-01-26T21:03:56.985Z,12.65
2023-01-26T21:06:00.217Z,12.77
2023-01-26T21:08:05.072Z,13.27
2023-01-26T21:10:09.305Z,11.98
2023-01-26T21:12:12.562Z,11.30
2023-01-26T21:14:15.797Z,11.52
2023-01-26T21:16:23.178Z,12.60
2023-01-26T21:18:26.519Z,11.43
2023-01-26T21:20:29.871Z,9.73
2023-01-26T21:22:33.076Z,9.73
2023-01-26T21:24:38.034Z,9.60
2023-01-26T21:26:41.200Z,8.90
2023-01-26T21:28:44.695Z,9.32
2023-01-26T21:30:47.897Z,8.90
2023-01-26T21:32:52.717Z,9.20
2023-01-26T21:34:55.920Z,8.48
2023-01-26T21:36:59.060Z,8.73
2023-01-26T21:39:02.261Z,8.95
2023-01-26T21:41:29.665Z,8.10
2023-01-26T21:43:32.893Z,8.73
2023-01-26T21:45:54.272Z,8.18
2023-01-26T21:48:14.821Z,8.07
2023-01-26T21:50:38.589Z,8.05
2023-01-26T21:52:58.748Z,7.95
2023-01-26T21:55:01.927Z,11.43
2023-01-26T21:57:28.932Z,8.55
2023-01-26T21:59:31.173Z,8.13
2023-01-26T22:01:36.611Z,7.97
2023-01-26T22:03:40.121Z,6.38
2023-01-26T22:05:52.287Z,6.60
2023-01-26T22:07:55.811Z,6.30
2023-01-26T22:09:58.985Z,6.40
2023-01-26T22:12:03.322Z,6.25
2023-01-26T22:14:08.336Z,5.72
2023-01-26T22:16:11.567Z,5.85
2023-01-26T22:18:14.964Z,5.40
2023-01-26T22:20:18.735Z,5.72
2023-01-26T22:22:21.974Z,5.80
2023-01-26T22:24:25.296Z,5.00
2023-01-26T22:26:28.753Z,5.88
2023-01-26T22:28:34.874Z,4.78
2023-01-26T22:30:39.471Z,5.13
2023-01-26T22:32:43.870Z,4.22
2023-01-26T22:34:47.036Z,4.00
2023-01-26T22:36:50.461Z,3.85
2023-01-26T22:38:54.457Z,3.45
2023-01-26T22:40:57.603Z,3.45
2023-01-26T22:43:00.930Z,3.08
2023-01-26T22:45:04.485Z,2.78
2023-01-26T22:47:09.137Z,2.90
2023-01-26T22:49:12.312Z,2.63
2023-01-26T22:51:18.290Z,2.20
2023-01-26T22:53:21.512Z,2.00
2023-01-26T22:55:25.045Z,2.40
2023-01-26T22:57:28.346Z,2.30
2023-01-26T22:59:31.600Z,2.30
2023-01-26T23:01:34.744Z,2.05
2023-01-26T23:03:40.088Z,2.40
2023-01-26T23:05:43.430Z,2.25
2023-01-26T23:07:46.610Z,2.30
2023-01-26T23:09:49.932Z,1.90
2023-01-26T23:11:53.106Z,2.38
2023-01-26T23:13:57.613Z,2.08
2023-01-26T23:16:00.917Z,2.00
2023-01-26T23:18:04.211Z,2.15
2023-01-26T23:20:10.567Z,2.17
2023-01-26T23:22:13.854Z,2.08
2023-01-26T23:24:17.090Z,1.90
2023-01-26T23:26:20.529Z,2.00
2023-01-26T23:28:25.867Z,2.03
2023-01-26T23:30:29.327Z,1.98
2023-01-26T23:32:32.570Z,1.70
2023-01-26T23:34:35.729Z,1.67
2023-01-26T23:36:40.548Z,1.95
2023-01-26T23:38:44.639Z,1.67
2023-01-26T23:40:50.302Z,1.90
2023-01-26T23:43:06.921Z,1.88
2023-01-26T23:45:14.017Z,1.70
2023-01-26T23:47:17.282Z,2.00
2023-01-26T23:49:20.503Z,1.80
2023-01-26T23:51:23.700Z,2.15
2023-01-26T23:53:28.846Z,1.80
2023-01-26T23:55:31.966Z,1.83
2023-01-26T23:57:36.140Z,1.80
2023-01-26T23:59:39.330Z,1.80
